createdAt,value
2019-06-07T00:00:38.293Z,12.29
2019-06-07T00:01:28.735Z,12.21
2019-06-07T00:02:27.732Z,12.22
2019-06-07T00:03:30.287Z,12.21
2019-06-07T00:04:27.719Z,12.22
2019-06-07T00:05:27.718Z,12.24
2019-06-07T00:06:27.702Z,12.13
2019-06-07T00:07:27.675Z,12.13
2019-06-07T00:08:29.242Z,12.15
2019-06-07T00:09:27.652Z,12.21
2019-06-07T00:10:36.443Z,12.13
2019-06-07T00:11:28.643Z,12.25
2019-06-07T00:12:27.619Z,12.15
2019-06-07T00:13:27.605Z,12.21
2019-06-07T00:14:27.596Z,12.18
2019-06-07T00:15:29.003Z,12.17
2019-06-07T00:16:27.584Z,12.10
2019-06-07T00:17:27.579Z,12.10
2019-06-07T00:18:27.547Z,12.22
2019-06-07T00:19:27.536Z,12.02
2019-06-07T00:20:27.525Z,12.06
2019-06-07T00:22:12.636Z,12.06
2019-06-07T00:22:33.081Z,12.10
2019-06-07T00:23:28.529Z,12.04
2019-06-07T00:24:27.479Z,12.10
2019-06-07T00:25:27.467Z,12.10
2019-06-07T00:26:27.464Z,12.06
2019-06-07T00:27:27.451Z,12.06
2019-06-07T00:28:27.463Z,12.04
2019-06-07T00:29:27.427Z,12.02
2019-06-07T00:30:43.724Z,12.00
2019-06-07T00:31:28.399Z,11.88
2019-06-07T00:32:27.392Z,11.99
2019-06-07T00:33:27.415Z,11.95
2019-06-07T00:34:27.384Z,11.95
2019-06-07T00:35:27.363Z,11.91
2019-06-07T00:36:27.352Z,11.94
2019-06-07T00:37:27.337Z,11.87
2019-06-07T00:38:27.326Z,11.90
2019-06-07T00:39:27.382Z,11.84
2019-06-07T00:40:31.754Z,11.75
2019-06-07T00:41:28.298Z,11.73
2019-06-07T00:42:27.279Z,11.81
2019-06-07T00:43:28.608Z,11.80
2019-06-07T00:44:27.259Z,11.75
2019-06-07T00:45:27.260Z,11.69
2019-06-07T00:46:27.267Z,11.68
2019-06-07T00:47:27.223Z,11.63
2019-06-07T00:48:32.334Z,11.69
2019-06-07T00:49:40.603Z,11.68
2019-06-07T00:50:28.192Z,11.62
2019-06-07T00:51:27.184Z,11.65
2019-06-07T00:53:13.845Z,11.63
2019-06-07T00:53:32.183Z,11.68
2019-06-07T00:54:27.203Z,11.55
2019-06-07T00:55:27.721Z,11.55
2019-06-07T00:56:27.130Z,11.59
2019-06-07T00:57:27.119Z,11.57
2019-06-07T00:58:29.313Z,11.55
2019-06-07T00:59:29.486Z,11.54
2019-06-07T01:00:27.084Z,11.52
2019-06-07T01:01:27.079Z,11.50
2019-06-07T01:02:31.172Z,11.45
2019-06-07T01:03:27.071Z,11.51
2019-06-07T01:04:27.257Z,11.40
2019-06-07T01:05:31.406Z,11.44
2019-06-07T01:06:27.035Z,11.44
2019-06-07T01:07:27.018Z,11.33
2019-06-07T01:08:29.942Z,11.35
2019-06-07T01:09:26.979Z,11.32
2019-06-07T01:10:51.793Z,11.33
2019-06-07T01:11:27.959Z,11.27
2019-06-07T01:12:27.282Z,11.22
2019-06-07T01:13:27.178Z,11.19
2019-06-07T01:14:28.502Z,11.17
2019-06-07T01:15:29.001Z,11.22
2019-06-07T01:16:26.904Z,11.23
2019-06-07T01:17:39.220Z,11.18
2019-06-07T01:18:39.078Z,11.26
2019-06-07T01:19:28.147Z,11.19
2019-06-07T01:20:27.008Z,11.19
2019-06-07T01:21:29.439Z,11.14
2019-06-07T01:22:29.012Z,11.10
2019-06-07T01:24:28.193Z,11.15
2019-06-07T01:25:28.909Z,11.12
2019-06-07T01:26:29.835Z,11.14
2019-06-07T01:27:26.783Z,11.15
2019-06-07T01:28:27.762Z,11.05
2019-06-07T01:29:29.492Z,11.10
2019-06-07T01:30:26.867Z,11.08
2019-06-07T01:31:28.487Z,10.99
2019-06-07T01:32:27.911Z,11.07
2019-06-07T01:33:46.445Z,11.10
2019-06-07T01:34:28.945Z,11.08
2019-06-07T01:35:26.753Z,11.02
2019-06-07T01:36:29.551Z,11.08
2019-06-07T01:37:29.696Z,10.99
2019-06-07T01:38:26.929Z,11.05
2019-06-07T01:39:29.802Z,11.04
2019-06-07T01:40:30.404Z,10.96
2019-06-07T01:41:30.147Z,10.97
2019-06-07T01:42:29.417Z,11.00
2019-06-07T01:43:28.704Z,11.00
2019-06-07T01:44:28.031Z,11.08
2019-06-07T01:45:30.606Z,11.02
2019-06-07T01:46:26.845Z,10.94
2019-06-07T01:47:31.244Z,11.04
2019-06-07T01:48:46.203Z,10.96
2019-06-07T01:49:29.541Z,10.92
2019-06-07T01:50:27.040Z,11.04
2019-06-07T01:51:27.867Z,10.92
2019-06-07T01:52:26.751Z,10.99
2019-06-07T01:53:28.498Z,10.99
2019-06-07T01:54:52.234Z,11.04
2019-06-07T01:55:32.237Z,10.93
2019-06-07T01:56:29.598Z,11.10
2019-06-07T01:57:39.817Z,11.08
2019-06-07T01:58:29.210Z,10.97
2019-06-07T01:59:28.465Z,10.93
2019-06-07T02:00:31.464Z,11.04
2019-06-07T02:01:34.709Z,10.99
2019-06-07T02:02:30.055Z,11.07
2019-06-07T02:03:30.111Z,10.96
2019-06-07T02:04:32.028Z,10.97
2019-06-07T02:05:30.883Z,10.99
2019-06-07T02:06:29.702Z,10.92
2019-06-07T02:07:30.368Z,10.93
2019-06-07T02:08:33.574Z,10.96
2019-06-07T02:09:29.884Z,10.89
2019-06-07T02:10:29.980Z,10.87
2019-06-07T02:11:29.394Z,10.90
2019-06-07T02:12:34.660Z,10.86
2019-06-07T02:13:28.719Z,10.82
2019-06-07T02:14:29.582Z,10.81
2019-06-07T02:15:30.694Z,10.81
2019-06-07T02:16:30.373Z,10.86
2019-06-07T02:17:30.159Z,10.86
2019-06-07T02:18:29.154Z,10.82
2019-06-07T02:19:31.149Z,10.82
2019-06-07T02:20:33.510Z,10.81
2019-06-07T02:21:30.439Z,10.79
2019-06-07T02:22:29.354Z,10.78
2019-06-07T02:23:30.347Z,10.69
2019-06-07T02:24:28.818Z,10.67
2019-06-07T02:25:38.414Z,10.61
2019-06-07T02:26:29.937Z,10.61
2019-06-07T02:27:27.491Z,10.64
2019-06-07T02:28:34.673Z,10.63
2019-06-07T02:29:30.219Z,10.64
2019-06-07T02:30:53.367Z,10.64
2019-06-07T02:31:28.666Z,10.63
2019-06-07T02:32:29.737Z,10.63
2019-06-07T02:33:33.541Z,10.59
2019-06-07T02:34:28.210Z,10.60
2019-06-07T02:35:38.744Z,10.64
2019-06-07T02:36:30.505Z,10.57
2019-06-07T02:37:31.614Z,10.57
2019-06-07T02:38:29.375Z,10.51
2019-06-07T02:39:28.772Z,10.51
2019-06-07T02:40:28.007Z,10.42
2019-06-07T02:41:33.344Z,10.42
2019-06-07T02:42:30.810Z,10.38
2019-06-07T02:43:28.210Z,10.38
2019-06-07T02:44:30.624Z,10.42
2019-06-07T02:45:29.916Z,10.38
2019-06-07T02:46:36.218Z,10.33
2019-06-07T02:47:28.698Z,10.23
2019-06-07T02:48:28.029Z,10.26
2019-06-07T02:49:31.380Z,10.23
2019-06-07T02:50:29.185Z,10.22
2019-06-07T02:51:32.673Z,10.23
2019-06-07T02:52:29.336Z,10.25
2019-06-07T02:53:27.700Z,10.19
2019-06-07T02:54:27.428Z,10.15
2019-06-07T02:55:28.985Z,10.19
2019-06-07T02:56:39.164Z,10.16
2019-06-07T02:57:29.307Z,10.16
2019-06-07T02:58:31.120Z,10.16
2019-06-07T02:59:54.971Z,10.17
2019-06-07T03:00:51.414Z,10.15
2019-06-07T03:01:28.568Z,10.13
2019-06-07T03:02:30.919Z,10.15
2019-06-07T03:03:30.025Z,10.15
2019-06-07T03:04:27.246Z,10.15
2019-06-07T03:05:27.297Z,10.20
2019-06-07T03:06:29.824Z,10.19
2019-06-07T03:07:28.280Z,10.15
2019-06-07T03:08:25.854Z,10.15
2019-06-07T03:09:26.357Z,10.16
2019-06-07T03:10:28.565Z,10.15
2019-06-07T03:11:25.836Z,10.12
2019-06-07T03:12:26.583Z,10.10
2019-06-07T03:13:28.884Z,10.05
2019-06-07T03:14:25.994Z,10.05
2019-06-07T03:15:35.451Z,10.07
2019-06-07T03:16:26.572Z,10.05
2019-06-07T03:17:27.101Z,10.09
2019-06-07T03:18:28.623Z,10.07
2019-06-07T03:19:26.398Z,10.02
2019-06-07T03:20:27.400Z,9.98
2019-06-07T03:21:29.106Z,10.07
2019-06-07T03:22:26.726Z,9.94
2019-06-07T03:23:26.348Z,9.98
2019-06-07T03:24:29.564Z,9.99
2019-06-07T03:25:25.758Z,10.04
2019-06-07T03:26:27.444Z,10.04
2019-06-07T03:27:40.675Z,9.99
2019-06-07T03:28:27.579Z,10.04
2019-06-07T03:29:28.531Z,10.02
2019-06-07T03:31:00.407Z,10.07
2019-06-07T03:31:28.436Z,10.04
2019-06-07T03:32:29.219Z,10.01
2019-06-07T03:33:26.864Z,10.05
2019-06-07T03:34:25.364Z,9.98
2019-06-07T03:35:27.598Z,10.02
2019-06-07T03:36:25.998Z,10.09
2019-06-07T03:37:27.448Z,10.09
2019-06-07T03:38:27.564Z,10.07
2019-06-07T03:39:26.480Z,10.01
2019-06-07T03:40:25.299Z,10.10
2019-06-07T03:41:25.287Z,10.07
2019-06-07T03:42:25.281Z,10.10
2019-06-07T03:43:25.287Z,10.07
2019-06-07T03:44:25.315Z,10.05
2019-06-07T03:45:25.266Z,10.09
2019-06-07T03:46:25.236Z,10.05
2019-06-07T03:47:25.219Z,10.07
2019-06-07T03:48:25.251Z,10.10
2019-06-07T03:49:25.195Z,10.13
2019-06-07T03:50:25.208Z,10.12
2019-06-07T03:51:27.012Z,10.16
2019-06-07T03:52:25.165Z,10.10
2019-06-07T03:53:25.155Z,10.07
2019-06-07T03:54:25.158Z,10.17
2019-06-07T03:55:25.153Z,10.13
2019-06-07T03:56:25.123Z,10.20
2019-06-07T03:57:25.140Z,10.16
2019-06-07T03:58:38.029Z,10.25
2019-06-07T03:59:28.254Z,10.23
2019-06-07T04:00:25.072Z,10.23
2019-06-07T04:01:25.075Z,10.33
2019-06-07T04:02:25.055Z,10.40
2019-06-07T04:03:38.244Z,10.38
2019-06-07T04:04:26.048Z,10.40
2019-06-07T04:05:25.026Z,10.35
2019-06-07T04:06:25.059Z,10.34
2019-06-07T04:07:24.998Z,10.33
2019-06-07T04:08:25.002Z,10.31
2019-06-07T04:09:24.978Z,10.35
2019-06-07T04:10:44.761Z,10.40
2019-06-07T04:11:25.959Z,10.40
2019-06-07T04:12:24.950Z,10.46
2019-06-07T04:13:24.937Z,10.42
2019-06-07T04:14:24.921Z,10.54
2019-06-07T04:15:24.922Z,10.57
2019-06-07T04:16:24.925Z,10.48
2019-06-07T04:17:24.899Z,10.56
2019-06-07T04:18:24.877Z,10.51
2019-06-07T04:19:24.874Z,10.57
2019-06-07T04:20:24.915Z,10.59
2019-06-07T04:21:24.846Z,10.59
2019-06-07T04:22:24.833Z,10.59
2019-06-07T04:23:28.071Z,10.69
2019-06-07T04:24:25.810Z,10.61
2019-06-07T04:25:24.802Z,10.60
2019-06-07T04:26:24.800Z,10.63
2019-06-07T04:27:24.774Z,10.61
2019-06-07T04:29:16.500Z,10.71
2019-06-07T04:29:33.050Z,10.75
2019-06-07T04:30:25.733Z,10.69
2019-06-07T04:31:24.742Z,10.81
2019-06-07T04:32:24.718Z,10.72
2019-06-07T04:33:24.706Z,10.82
2019-06-07T04:34:24.706Z,10.81
2019-06-07T04:35:24.691Z,10.87
2019-06-07T04:36:41.822Z,10.86
2019-06-07T04:37:25.673Z,10.81
2019-06-07T04:38:24.658Z,10.86
2019-06-07T04:39:24.645Z,10.89
2019-06-07T04:40:24.664Z,10.87
2019-06-07T04:41:24.617Z,10.92
2019-06-07T04:42:24.621Z,10.92
2019-06-07T04:43:25.232Z,10.89
2019-06-07T04:44:24.585Z,10.93
2019-06-07T04:45:33.520Z,10.87
2019-06-07T04:46:25.574Z,10.93
2019-06-07T04:47:24.574Z,10.94
2019-06-07T04:48:24.562Z,10.99
2019-06-07T04:49:24.545Z,10.99
2019-06-07T04:50:24.522Z,11.04
2019-06-07T04:51:24.559Z,11.04
2019-06-07T04:52:24.495Z,11.08
2019-06-07T04:53:24.490Z,11.02
2019-06-07T04:54:24.490Z,11.02
2019-06-07T04:55:24.490Z,10.99
2019-06-07T04:56:24.449Z,11.10
2019-06-07T04:57:24.456Z,11.07
2019-06-07T04:58:24.429Z,11.14
2019-06-07T05:00:01.225Z,11.15
2019-06-07T05:00:49.007Z,11.12
2019-06-07T05:01:27.700Z,11.14
2019-06-07T05:02:24.406Z,11.10
2019-06-07T05:03:24.380Z,11.17
2019-06-07T05:04:24.366Z,11.19
2019-06-07T05:05:24.350Z,11.22
2019-06-07T05:06:24.377Z,11.22
2019-06-07T05:07:24.335Z,11.23
2019-06-07T05:08:28.434Z,11.22
2019-06-07T05:09:25.317Z,11.29
2019-06-07T05:10:24.298Z,11.32
2019-06-07T05:11:24.294Z,11.32
2019-06-07T05:12:24.305Z,11.32
2019-06-07T05:13:24.286Z,11.40
2019-06-07T05:14:24.249Z,11.33
2019-06-07T05:15:24.266Z,11.30
2019-06-07T05:16:24.238Z,11.44
2019-06-07T05:17:24.213Z,11.41
2019-06-07T05:18:24.212Z,11.47
2019-06-07T05:19:24.194Z,11.50
2019-06-07T05:20:24.198Z,11.57
2019-06-07T05:21:24.194Z,11.57
2019-06-07T05:22:24.178Z,11.57
2019-06-07T05:24:25.134Z,11.68
2019-06-07T05:25:24.125Z,11.69
2019-06-07T05:26:24.138Z,11.63
2019-06-07T05:27:24.100Z,11.59
2019-06-07T05:28:24.092Z,11.66
2019-06-07T05:29:24.089Z,11.75
2019-06-07T05:30:59.818Z,11.80
2019-06-07T05:31:25.084Z,11.81
2019-06-07T05:32:24.068Z,11.87
2019-06-07T05:33:24.036Z,11.83
2019-06-07T05:34:24.029Z,11.83
2019-06-07T05:35:24.040Z,11.86
2019-06-07T05:36:24.004Z,11.97
2019-06-07T05:37:24.008Z,11.97
2019-06-07T05:38:24.012Z,11.99
2019-06-07T05:39:23.976Z,12.06
2019-06-07T05:40:23.962Z,12.09
2019-06-07T05:41:23.951Z,12.10
2019-06-07T05:42:23.940Z,12.13
2019-06-07T05:43:23.949Z,12.15
2019-06-07T05:44:23.918Z,12.17
2019-06-07T05:45:23.952Z,12.29
2019-06-07T05:46:23.892Z,12.25
2019-06-07T05:47:23.949Z,12.25
2019-06-07T05:48:23.877Z,12.37
2019-06-07T05:49:23.884Z,12.42
2019-06-07T05:50:39.125Z,12.43
2019-06-07T05:51:24.864Z,12.45
2019-06-07T05:52:23.861Z,12.42
2019-06-07T05:53:23.828Z,12.45
2019-06-07T05:54:23.816Z,12.50
2019-06-07T05:55:23.815Z,12.53
2019-06-07T05:56:23.793Z,12.60
2019-06-07T05:57:23.788Z,12.68
2019-06-07T05:58:23.772Z,12.65
2019-06-07T05:59:23.748Z,12.76
2019-06-07T06:00:25.234Z,12.79
2019-06-07T06:01:42.724Z,12.76
2019-06-07T06:02:25.031Z,12.79
2019-06-07T06:03:23.705Z,12.87
2019-06-07T06:04:23.691Z,12.94
2019-06-07T06:05:33.910Z,13.01
2019-06-07T06:06:24.696Z,13.04
2019-06-07T06:07:23.651Z,13.04
2019-06-07T06:08:23.660Z,13.16
2019-06-07T06:09:23.636Z,13.13
2019-06-07T06:10:23.624Z,13.25
2019-06-07T06:11:42.691Z,13.33
2019-06-07T06:12:34.649Z,13.37
2019-06-07T06:13:24.596Z,13.31
2019-06-07T06:14:23.603Z,13.38
2019-06-07T06:15:41.488Z,13.52
2019-06-07T06:16:24.588Z,13.44
2019-06-07T06:17:23.541Z,13.46
2019-06-07T06:18:23.549Z,13.50
2019-06-07T06:19:23.532Z,13.39
2019-06-07T06:20:23.550Z,13.46
2019-06-07T06:21:23.504Z,13.50
2019-06-07T06:22:23.511Z,13.52
2019-06-07T06:23:23.544Z,13.59
2019-06-07T06:24:23.501Z,13.67
2019-06-07T06:25:33.653Z,13.71
2019-06-07T06:26:24.440Z,13.79
2019-06-07T06:28:02.521Z,13.74
2019-06-07T06:28:24.421Z,13.79
2019-06-07T06:29:23.432Z,13.79
2019-06-07T06:30:23.408Z,13.87
2019-06-07T06:31:23.391Z,13.96
2019-06-07T06:32:41.608Z,13.95
2019-06-07T06:33:33.676Z,14.00
2019-06-07T06:34:24.346Z,14.03
2019-06-07T06:35:23.340Z,14.05
2019-06-07T06:36:23.397Z,14.00
2019-06-07T06:37:23.358Z,14.03
2019-06-07T06:38:23.316Z,14.11
2019-06-07T06:39:23.303Z,14.20
2019-06-07T06:40:23.306Z,14.17
2019-06-07T06:41:23.292Z,14.18
2019-06-07T06:42:23.286Z,14.28
2019-06-07T06:43:23.247Z,14.28
2019-06-07T06:44:23.243Z,14.28
2019-06-07T06:45:23.237Z,14.41
2019-06-07T06:46:38.288Z,14.45
2019-06-07T06:47:24.220Z,14.53
2019-06-07T06:48:23.208Z,14.58
2019-06-07T06:49:23.218Z,14.58
2019-06-07T06:50:23.176Z,14.59
2019-06-07T06:51:23.161Z,14.59
2019-06-07T06:52:23.156Z,14.72
2019-06-07T06:53:23.155Z,14.65
2019-06-07T06:54:40.254Z,14.68
2019-06-07T06:55:24.127Z,14.81
2019-06-07T06:56:23.112Z,14.84
2019-06-07T06:57:23.161Z,14.81
2019-06-07T06:58:23.088Z,14.88
2019-06-07T06:59:40.888Z,14.91
2019-06-07T07:00:43.183Z,14.96
2019-06-07T07:01:24.048Z,15.07
2019-06-07T07:02:23.047Z,15.06
2019-06-07T07:04:24.028Z,15.18
2019-06-07T07:05:23.044Z,15.25
2019-06-07T07:06:26.569Z,15.28
2019-06-07T07:07:22.982Z,15.27
2019-06-07T07:08:22.981Z,15.27
2019-06-07T07:09:22.975Z,15.36
2019-06-07T07:10:22.949Z,15.46
2019-06-07T07:11:23.469Z,15.52
2019-06-07T07:12:22.936Z,15.59
2019-06-07T07:13:22.920Z,15.61
2019-06-07T07:14:22.904Z,15.67
2019-06-07T07:15:22.911Z,15.77
2019-06-07T07:16:22.908Z,15.75
2019-06-07T07:17:46.787Z,15.80
2019-06-07T07:18:23.856Z,15.82
2019-06-07T07:19:22.872Z,15.86
2019-06-07T07:20:22.884Z,15.92
2019-06-07T07:21:22.829Z,15.90
2019-06-07T07:22:22.875Z,15.95
2019-06-07T07:23:22.808Z,15.94
2019-06-07T07:24:22.802Z,16.02
2019-06-07T07:25:22.783Z,16.13
2019-06-07T07:26:22.816Z,16.17
2019-06-07T07:27:22.756Z,16.28
2019-06-07T07:28:22.793Z,16.36
2019-06-07T07:29:22.735Z,16.33
2019-06-07T07:30:36.537Z,16.47
2019-06-07T07:31:23.744Z,16.53
2019-06-07T07:32:22.702Z,16.47
2019-06-07T07:33:22.691Z,16.47
2019-06-07T07:34:34.860Z,16.53
2019-06-07T07:35:23.664Z,16.58
2019-06-07T07:36:38.219Z,16.64
2019-06-07T07:37:23.654Z,16.60
2019-06-07T07:38:22.637Z,16.68
2019-06-07T07:39:22.635Z,16.72
2019-06-07T07:40:56.251Z,16.76
2019-06-07T07:41:23.631Z,16.89
2019-06-07T07:42:22.624Z,16.81
2019-06-07T07:43:22.577Z,16.87
2019-06-07T07:44:22.568Z,16.84
2019-06-07T07:45:22.560Z,16.91
2019-06-07T07:46:30.350Z,16.93
2019-06-07T07:47:23.555Z,16.94
2019-06-07T07:48:22.540Z,16.97
2019-06-07T07:49:22.508Z,17.02
2019-06-07T07:50:22.508Z,17.05
2019-06-07T07:51:22.483Z,17.08
2019-06-07T07:52:22.501Z,17.09
2019-06-07T07:53:22.540Z,17.08
2019-06-07T07:54:22.479Z,17.15
2019-06-07T07:55:22.507Z,17.22
2019-06-07T07:56:22.442Z,17.24
2019-06-07T07:57:22.425Z,17.31
2019-06-07T07:58:22.471Z,17.29
2019-06-07T07:59:40.649Z,17.41
2019-06-07T08:00:50.309Z,17.45
2019-06-07T08:01:23.380Z,17.51
2019-06-07T08:02:22.379Z,17.56
2019-06-07T08:03:22.356Z,17.52
2019-06-07T08:04:29.443Z,17.52
2019-06-07T08:05:41.585Z,17.64
2019-06-07T08:06:23.324Z,17.56
2019-06-07T08:07:22.308Z,17.51
2019-06-07T08:08:22.296Z,17.49
2019-06-07T08:09:22.287Z,17.59
2019-06-07T08:10:22.289Z,17.67
2019-06-07T08:11:22.275Z,17.65
2019-06-07T08:12:22.265Z,17.74
2019-06-07T08:13:26.583Z,17.83
2019-06-07T08:14:23.245Z,18.00
2019-06-07T08:15:22.220Z,17.98
2019-06-07T08:16:22.223Z,18.07
2019-06-07T08:17:22.208Z,18.11
2019-06-07T08:18:22.192Z,18.22
2019-06-07T08:19:22.188Z,18.16
2019-06-07T08:20:22.174Z,18.16
2019-06-07T08:21:26.421Z,18.15
2019-06-07T08:22:22.176Z,18.20
2019-06-07T08:23:22.143Z,18.11
2019-06-07T08:24:22.191Z,18.35
2019-06-07T08:25:22.111Z,18.43
2019-06-07T08:26:22.127Z,18.43
2019-06-07T08:27:26.571Z,18.53
2019-06-07T08:28:22.088Z,18.59
2019-06-07T08:29:22.076Z,18.60
2019-06-07T08:30:53.002Z,18.68
2019-06-07T08:31:23.039Z,18.70
2019-06-07T08:32:22.033Z,18.74
2019-06-07T08:33:26.653Z,18.74
2019-06-07T08:34:23.011Z,18.86
2019-06-07T08:36:03.018Z,18.98
2019-06-07T08:36:40.754Z,18.93
2019-06-07T08:37:22.999Z,18.95
2019-06-07T08:38:27.320Z,18.92
2019-06-07T08:39:23.006Z,18.99
2019-06-07T08:40:21.956Z,18.93
2019-06-07T08:41:21.987Z,18.92
2019-06-07T08:42:36.200Z,18.90
2019-06-07T08:43:22.908Z,19.00
2019-06-07T08:44:25.533Z,19.08
2019-06-07T08:45:21.908Z,19.07
2019-06-07T08:46:21.887Z,19.07
2019-06-07T08:47:21.867Z,19.15
2019-06-07T08:48:27.814Z,19.22
2019-06-07T08:49:22.851Z,19.24
2019-06-07T08:50:21.839Z,19.29
2019-06-07T08:51:21.831Z,19.33
2019-06-07T08:52:21.870Z,19.40
2019-06-07T08:53:21.795Z,19.51
2019-06-07T08:54:23.364Z,19.64
2019-06-07T08:55:21.792Z,19.66
2019-06-07T08:56:21.765Z,19.71
2019-06-07T08:57:22.095Z,19.74
2019-06-07T08:58:21.744Z,19.82
2019-06-07T08:59:21.759Z,19.88
2019-06-07T09:01:22.719Z,19.96
2019-06-07T09:02:24.006Z,19.88
2019-06-07T09:03:21.714Z,19.95
2019-06-07T09:04:21.671Z,19.88
2019-06-07T09:05:21.683Z,19.99
2019-06-07T09:07:01.817Z,20.03
2019-06-07T09:07:22.648Z,20.03
2019-06-07T09:08:30.059Z,20.11
2019-06-07T09:09:22.615Z,20.22
2019-06-07T09:10:21.615Z,20.29
2019-06-07T09:11:21.612Z,20.31
2019-06-07T09:12:21.583Z,20.36
2019-06-07T09:13:21.603Z,20.29
2019-06-07T09:14:21.563Z,20.29
2019-06-07T09:15:23.808Z,20.43
2019-06-07T09:16:21.549Z,20.52
2019-06-07T09:17:21.543Z,20.72
2019-06-07T09:18:41.106Z,20.65
2019-06-07T09:19:22.506Z,20.72
2019-06-07T09:20:36.320Z,20.80
2019-06-07T09:21:22.524Z,20.70
2019-06-07T09:22:21.479Z,20.74
2019-06-07T09:23:21.475Z,20.67
2019-06-07T09:24:21.453Z,20.69
2019-06-07T09:25:21.948Z,20.80
2019-06-07T09:26:21.445Z,20.70
2019-06-07T09:27:21.431Z,20.80
2019-06-07T09:28:21.407Z,20.84
2019-06-07T09:29:21.400Z,21.05
2019-06-07T09:30:21.383Z,21.17
2019-06-07T09:31:21.427Z,21.18
2019-06-07T09:32:21.366Z,21.21
2019-06-07T09:33:21.377Z,21.25
2019-06-07T09:34:21.347Z,21.30
2019-06-07T09:35:21.328Z,21.32
2019-06-07T09:36:21.320Z,21.37
2019-06-07T09:38:03.804Z,21.36
2019-06-07T09:38:26.076Z,21.39
2019-06-07T09:39:21.287Z,21.30
2019-06-07T09:40:27.401Z,21.15
2019-06-07T09:41:22.259Z,21.06
2019-06-07T09:42:21.269Z,21.02
2019-06-07T09:44:25.999Z,20.97
2019-06-07T09:45:21.264Z,21.14
2019-06-07T09:46:21.203Z,21.17
2019-06-07T09:47:31.642Z,21.20
2019-06-07T09:49:09.319Z,21.33
2019-06-07T09:49:32.063Z,21.48
2019-06-07T09:50:22.171Z,21.54
2019-06-07T09:51:21.150Z,21.66
2019-06-07T09:52:21.156Z,21.75
2019-06-07T09:53:23.247Z,21.60
2019-06-07T09:55:03.272Z,21.64
2019-06-07T09:55:24.649Z,21.67
2019-06-07T09:56:21.100Z,21.55
2019-06-07T09:57:21.079Z,21.57
2019-06-07T09:59:22.089Z,21.79
2019-06-07T10:00:39.957Z,21.82
2019-06-07T10:01:22.071Z,21.85
2019-06-07T10:02:21.032Z,21.96
2019-06-07T10:03:22.654Z,22.11
2019-06-07T10:04:30.869Z,22.26
2019-06-07T10:05:22.023Z,22.25
2019-06-07T10:06:20.983Z,22.36
2019-06-07T10:07:31.411Z,22.43
2019-06-07T10:09:31.504Z,22.45
2019-06-07T10:11:21.947Z,22.04
2019-06-07T10:12:20.921Z,22.08
2019-06-07T10:13:20.907Z,22.06
2019-06-07T10:14:20.903Z,22.23
2019-06-07T10:15:20.879Z,22.44
2019-06-07T10:16:20.892Z,22.54
2019-06-07T10:17:20.876Z,22.63
2019-06-07T10:18:20.856Z,22.60
2019-06-07T10:19:20.851Z,22.78
2019-06-07T10:20:20.832Z,22.87
2019-06-07T10:21:20.837Z,22.85
2019-06-07T10:22:20.825Z,22.81
2019-06-07T10:23:20.807Z,22.94
2019-06-07T10:24:20.789Z,22.70
2019-06-07T10:25:20.785Z,22.65
2019-06-07T10:26:20.767Z,22.63
2019-06-07T10:27:20.771Z,22.48
2019-06-07T10:28:20.768Z,22.36
2019-06-07T10:29:20.730Z,22.38
2019-06-07T10:30:20.716Z,22.32
2019-06-07T10:31:20.708Z,22.41
2019-06-07T10:32:20.704Z,22.41
2019-06-07T10:33:20.702Z,22.50
2019-06-07T10:34:20.690Z,22.63
2019-06-07T10:35:20.665Z,22.54
2019-06-07T10:36:20.652Z,22.53
2019-06-07T10:37:20.645Z,22.62
2019-06-07T10:38:20.651Z,22.54
2019-06-07T10:39:20.638Z,22.63
2019-06-07T10:40:20.675Z,22.70
2019-06-07T10:41:20.599Z,22.80
2019-06-07T10:42:20.590Z,22.85
2019-06-07T10:43:20.579Z,22.88
2019-06-07T10:44:20.569Z,22.98
2019-06-07T10:45:20.587Z,23.03
2019-06-07T10:46:20.576Z,23.03
2019-06-07T10:47:20.543Z,23.06
2019-06-07T10:48:20.523Z,23.00
2019-06-07T10:49:20.507Z,22.98
2019-06-07T10:50:20.503Z,22.93
2019-06-07T10:51:20.499Z,23.03
2019-06-07T10:52:20.483Z,23.10
2019-06-07T10:53:20.485Z,23.17
2019-06-07T10:54:27.872Z,23.03
2019-06-07T10:55:21.475Z,23.05
2019-06-07T10:56:20.431Z,23.08
2019-06-07T10:57:20.436Z,23.06
2019-06-07T10:58:20.413Z,23.23
2019-06-07T10:59:20.435Z,23.32
2019-06-07T11:00:20.385Z,23.50
2019-06-07T11:01:20.376Z,23.44
2019-06-07T11:02:20.368Z,23.34
2019-06-07T11:03:20.365Z,23.32
2019-06-07T11:04:20.339Z,23.41
2019-06-07T11:05:20.351Z,23.28
2019-06-07T11:06:20.335Z,23.43
2019-06-07T11:07:20.315Z,23.51
2019-06-07T11:08:20.323Z,23.51
2019-06-07T11:09:20.295Z,23.55
2019-06-07T11:10:20.492Z,23.56
2019-06-07T11:11:20.268Z,23.56
2019-06-07T11:12:20.255Z,23.48
2019-06-07T11:13:20.251Z,23.66
2019-06-07T11:14:20.247Z,23.76
2019-06-07T11:15:20.220Z,23.78
2019-06-07T11:16:20.224Z,23.77
2019-06-07T11:17:20.200Z,23.77
2019-06-07T11:18:20.192Z,23.69
2019-06-07T11:19:20.175Z,23.69
2019-06-07T11:20:20.204Z,23.59
2019-06-07T11:21:20.169Z,23.65
2019-06-07T11:22:20.156Z,23.69
2019-06-07T11:23:20.135Z,23.63
2019-06-07T11:24:24.537Z,23.77
2019-06-07T11:25:20.124Z,23.77
2019-06-07T11:26:20.232Z,23.81
2019-06-07T11:27:20.107Z,23.74
2019-06-07T11:28:20.147Z,23.84
2019-06-07T11:29:20.069Z,23.77
2019-06-07T11:30:20.103Z,23.83
2019-06-07T11:31:20.048Z,23.91
2019-06-07T11:32:20.117Z,24.01
2019-06-07T11:33:20.035Z,24.11
2019-06-07T11:34:20.072Z,24.21
2019-06-07T11:35:20.039Z,24.17
2019-06-07T11:36:20.007Z,24.17
2019-06-07T11:37:19.991Z,24.26
2019-06-07T11:38:20.008Z,24.29
2019-06-07T11:39:19.964Z,24.28
2019-06-07T11:40:35.015Z,24.24
2019-06-07T11:41:20.939Z,24.14
2019-06-07T11:42:20.188Z,24.10
2019-06-07T11:43:19.936Z,24.17
2019-06-07T11:44:19.931Z,24.42
2019-06-07T11:45:19.895Z,24.35
2019-06-07T11:46:19.892Z,24.39
2019-06-07T11:47:19.876Z,24.48
2019-06-07T11:48:19.863Z,24.68
2019-06-07T11:49:22.020Z,24.68
2019-06-07T11:50:19.847Z,24.58
2019-06-07T11:51:19.841Z,24.48
2019-06-07T11:52:19.820Z,24.48
2019-06-07T11:53:20.134Z,24.48
2019-06-07T11:54:20.608Z,24.54
2019-06-07T11:55:19.809Z,24.60
2019-06-07T11:56:19.779Z,24.57
2019-06-07T11:57:19.759Z,24.69
2019-06-07T11:58:21.930Z,24.81
2019-06-07T11:59:19.761Z,24.85
2019-06-07T12:00:19.734Z,24.99
2019-06-07T12:01:19.723Z,25.06
2019-06-07T12:02:19.720Z,25.04
2019-06-07T12:03:19.696Z,24.89
2019-06-07T12:04:32.369Z,24.92
2019-06-07T12:05:20.695Z,25.04
2019-06-07T12:06:19.663Z,25.08
2019-06-07T12:07:19.981Z,25.07
2019-06-07T12:08:19.655Z,25.01
2019-06-07T12:09:19.635Z,24.95
2019-06-07T12:10:22.806Z,25.07
2019-06-07T12:11:19.625Z,25.06
2019-06-07T12:12:20.405Z,25.06
2019-06-07T12:13:19.591Z,25.07
2019-06-07T12:14:19.571Z,25.21
2019-06-07T12:15:19.584Z,25.21
2019-06-07T12:16:19.576Z,25.17
2019-06-07T12:17:19.670Z,25.22
2019-06-07T12:18:19.808Z,25.13
2019-06-07T12:19:19.866Z,25.18
2019-06-07T12:20:21.046Z,25.16
2019-06-07T12:21:19.929Z,25.22
2019-06-07T12:22:20.032Z,25.22
2019-06-07T12:23:20.161Z,25.31
2019-06-07T12:24:21.132Z,25.50
2019-06-07T12:25:24.416Z,25.50
2019-06-07T12:26:20.755Z,25.63
2019-06-07T12:27:20.726Z,25.63
2019-06-07T12:28:19.427Z,25.62
2019-06-07T12:29:19.429Z,25.75
2019-06-07T12:30:26.087Z,25.77
2019-06-07T12:31:21.188Z,25.81
2019-06-07T12:32:19.600Z,25.96
2019-06-07T12:33:19.741Z,25.95
2019-06-07T12:34:19.534Z,25.99
2019-06-07T12:35:20.002Z,25.80
2019-06-07T12:36:19.926Z,25.65
2019-06-07T12:37:22.817Z,25.53
2019-06-07T12:38:21.151Z,25.66
2019-06-07T12:39:20.127Z,25.55
2019-06-07T12:40:30.265Z,25.33
2019-06-07T12:41:20.376Z,25.28
2019-06-07T12:42:20.534Z,25.29
2019-06-07T12:43:20.795Z,25.41
2019-06-07T12:44:20.649Z,25.33
2019-06-07T12:45:41.942Z,25.40
2019-06-07T12:46:26.354Z,25.41
2019-06-07T12:47:21.075Z,25.36
2019-06-07T12:48:23.741Z,25.51
2019-06-07T12:49:21.168Z,25.55
2019-06-07T12:50:19.649Z,25.62
2019-06-07T12:51:19.387Z,25.87
2019-06-07T12:52:20.096Z,25.85
2019-06-07T12:53:24.134Z,25.90
2019-06-07T12:54:20.140Z,25.90
2019-06-07T12:55:20.449Z,25.87
2019-06-07T12:56:19.792Z,25.93
2019-06-07T12:57:20.152Z,25.98
2019-06-07T12:58:27.207Z,26.15
2019-06-07T12:59:20.110Z,26.22
2019-06-07T13:00:20.244Z,26.25